CYYJ

Victoria International Airport

Victoria, , Canada
METAR CYYJ 201300Z VRB02KT 10SM FEW001 SCT015 06/06 A3025 RMK SF2SC2 SLP246
Observed Flight Rules
Oct-20 @ 13:00 UTC (40 minutes ago) Visual Flight Rules
Wind Visibility Clouds
Variable at 2 knots 10 miles
  • Few at 100' AGL
  • Scattered at 1,500' AGL
Temperatures Readings
Current 6°C / 43°F
Dewpoint 6°C / 43°F
Humidity 100%
Altimeter 30.25" Hg
Pressure 1024.6 hPa
Elevation 19
METAR CYYJ 201300Z VRB02KT 10SM FEW001 SCT015 06/06 A3025 RMK SF2SC2 SLP246
Observed Flight Rules
Oct-20 @ 13:00 UTC
(40 minutes ago)
VFR
Wind Visibility
Variable at 2 knots 10 miles
Clouds
  • Few at 100' AGL
  • Scattered at 1,500' AGL
Temperature Dewpoint
6°C / 43°F 6°C / 43°F
Humidity Altimeter Pressure
100% 30.25" Hg 1024.6 hPa